createdAt,value
2023-05-16T00:00:42.325Z,0
2023-05-16T00:02:17.138Z,0
2023-05-16T00:03:06.000Z,0
2023-05-16T00:04:22.000Z,0
2023-05-16T00:05:47.345Z,0
2023-05-16T00:06:55.000Z,0
2023-05-16T00:08:19.732Z,0
2023-05-16T00:09:27.000Z,0
2023-05-16T00:10:43.000Z,0
2023-05-16T00:12:08.068Z,0
2023-05-16T00:13:16.000Z,0
2023-05-16T00:14:31.000Z,0
2023-05-16T00:15:55.665Z,0
2023-05-16T00:17:03.000Z,0
2023-05-16T00:18:19.000Z,0
2023-05-16T00:19:36.000Z,0
2023-05-16T00:20:39.000Z,0
2023-05-16T00:20:52.000Z,0
2023-05-16T00:22:16.635Z,0
2023-05-16T00:23:12.000Z,0
2023-05-16T00:23:24.000Z,0
2023-05-16T00:24:57.519Z,0
2023-05-16T00:26:05.216Z,0
2023-05-16T00:28:29.000Z,0
2023-05-16T00:31:00.000Z,0
2023-05-16T00:32:17.000Z,0
2023-05-16T00:33:41.396Z,0
2023-05-16T00:34:49.000Z,0
2023-05-16T00:36:05.000Z,0
2023-05-16T00:37:28.998Z,0
2023-05-16T00:38:45.192Z,0
2023-05-16T00:39:53.000Z,0
2023-05-16T00:41:17.580Z,0
2023-05-16T00:42:25.000Z,0
2023-05-16T00:43:41.000Z,0
2023-05-16T00:45:06.162Z,0
2023-05-16T00:46:14.000Z,0
2023-05-16T00:47:30.000Z,0
2023-05-16T00:48:46.000Z,0
2023-05-16T00:50:02.000Z,0
2023-05-16T00:51:18.000Z,0
2023-05-16T00:52:35.000Z,0
2023-05-16T00:53:50.000Z,0
2023-05-16T00:55:06.000Z,0
2023-05-16T00:56:22.000Z,0
2023-05-16T00:57:47.118Z,0
2023-05-16T00:58:55.000Z,0
2023-05-16T01:00:19.505Z,0
2023-05-16T01:01:27.000Z,0
2023-05-16T01:02:51.893Z,0
2023-05-16T01:03:59.000Z,0
2023-05-16T01:05:24.280Z,0
2023-05-16T01:06:32.000Z,0
2023-05-16T01:07:48.000Z,0
2023-05-16T01:09:04.000Z,0
2023-05-16T01:10:19.000Z,0
2023-05-16T01:11:36.000Z,0
2023-05-16T01:12:52.000Z,0
2023-05-16T01:14:08.000Z,0
2023-05-16T01:15:24.000Z,0
2023-05-16T01:16:49.042Z,0
2023-05-16T01:18:05.236Z,0
2023-05-16T01:19:13.000Z,0
2023-05-16T01:20:29.000Z,0
2023-05-16T01:21:53.817Z,0
2023-05-16T01:23:01.000Z,0
2023-05-16T01:24:26.204Z,0
2023-05-16T01:25:34.000Z,0
2023-05-16T01:26:57.609Z,0
2023-05-16T01:28:05.000Z,0
2023-05-16T01:29:21.000Z,0
2023-05-16T01:30:38.000Z,0
2023-05-16T01:32:02.385Z,0
2023-05-16T01:33:10.000Z,0
2023-05-16T01:34:26.000Z,0
2023-05-16T01:35:42.000Z,0
2023-05-16T01:37:07.160Z,0
2023-05-16T01:38:23.354Z,0
2023-05-16T01:39:39.547Z,0
2023-05-16T01:40:55.741Z,0
2023-05-16T01:42:03.000Z,0
2023-05-16T01:43:27.145Z,0
2023-05-16T01:44:35.000Z,0
2023-05-16T01:45:59.532Z,0
2023-05-16T01:47:07.000Z,0
2023-05-16T01:48:31.920Z,0
2023-05-16T01:49:39.000Z,0
2023-05-16T01:50:56.000Z,0
2023-05-16T01:52:20.506Z,0
2023-05-16T01:53:36.946Z,0
2023-05-16T01:54:52.895Z,0
2023-05-16T01:56:09.090Z,0
2023-05-16T01:57:25.285Z,0
2023-05-16T01:58:33.000Z,0
2023-05-16T01:59:56.692Z,0
2023-05-16T02:01:04.000Z,0
2023-05-16T02:02:29.082Z,0
2023-05-16T02:03:45.277Z,0
2023-05-16T02:04:53.000Z,0
2023-05-16T02:06:17.668Z,0
2023-05-16T02:07:25.000Z,0
2023-05-16T02:08:50.058Z,0
2023-05-16T02:09:58.000Z,0
2023-05-16T02:11:22.450Z,0
2023-05-16T02:12:30.000Z,0
2023-05-16T02:13:54.840Z,0
2023-05-16T02:15:02.000Z,0
2023-05-16T02:16:18.000Z,0
2023-05-16T02:17:42.443Z,0
2023-05-16T02:18:50.000Z,0
2023-05-16T02:20:14.835Z,0
2023-05-16T02:21:31.030Z,0
2023-05-16T02:22:47.226Z,0
2023-05-16T02:24:03.422Z,0
2023-05-16T02:25:19.618Z,0
2023-05-16T02:26:27.000Z,0
2023-05-16T02:27:43.000Z,0
2023-05-16T02:29:08.205Z,0
2023-05-16T02:30:24.401Z,0
2023-05-16T02:31:40.597Z,0
2023-05-16T02:32:47.000Z,0
2023-05-16T02:34:12.004Z,0
2023-05-16T02:35:28.200Z,0
2023-05-16T02:36:36.000Z,0
2023-05-16T02:37:52.000Z,0
2023-05-16T02:39:16.787Z,0
2023-05-16T02:41:49.179Z,0
2023-05-16T02:43:05.375Z,0
2023-05-16T02:44:21.570Z,0
2023-05-16T02:45:29.000Z,0
2023-05-16T02:46:53.962Z,0
2023-05-16T02:48:10.158Z,0
2023-05-16T02:49:25.369Z,0
2023-05-16T02:50:33.000Z,0
2023-05-16T02:51:57.761Z,0
2023-05-16T02:53:13.957Z,0
2023-05-16T02:54:30.152Z,0
2023-05-16T02:55:46.348Z,0
2023-05-16T02:57:02.544Z,0
2023-05-16T02:58:18.740Z,0
2023-05-16T02:59:26.000Z,0
2023-05-16T03:00:51.132Z,0
2023-05-16T03:02:07.327Z,0
2023-05-16T03:03:23.523Z,0
2023-05-16T03:04:39.718Z,4
2023-05-16T03:05:55.915Z,4
2023-05-16T03:07:11.126Z,8
2023-05-16T03:08:27.322Z,8
2023-05-16T03:09:43.518Z,8
2023-05-16T03:10:59.714Z,8
2023-05-16T03:12:07.000Z,8
2023-05-16T03:13:32.105Z,8
2023-05-16T03:14:40.000Z,4
2023-05-16T03:16:04.497Z,8
2023-05-16T03:17:20.692Z,8
2023-05-16T03:18:36.888Z,8
2023-05-16T03:19:53.084Z,8
2023-05-16T03:21:09.280Z,12
2023-05-16T03:22:25.475Z,8
2023-05-16T03:23:40.687Z,8
2023-05-16T03:24:56.882Z,12
2023-05-16T03:26:13.078Z,12
2023-05-16T03:27:21.000Z,12
2023-05-16T03:28:45.470Z,16
2023-05-16T03:30:01.665Z,16
2023-05-16T03:31:09.000Z,16
2023-05-16T03:32:25.000Z,16
2023-05-16T03:33:50.253Z,20
2023-05-16T03:35:06.448Z,20
2023-05-16T03:36:14.000Z,24
2023-05-16T03:37:38.840Z,28
2023-05-16T03:38:55.036Z,20
2023-05-16T03:40:10.247Z,32
2023-05-16T03:41:26.443Z,32
2023-05-16T03:42:42.639Z,28
2023-05-16T03:43:58.835Z,28
2023-05-16T03:45:15.030Z,32
2023-05-16T03:46:31.226Z,28
2023-05-16T03:47:47.422Z,36
2023-05-16T03:49:03.618Z,36
2023-05-16T03:50:19.813Z,44
2023-05-16T03:51:27.000Z,52
2023-05-16T03:52:52.450Z,44
2023-05-16T03:54:08.401Z,48
2023-05-16T03:55:24.596Z,64
2023-05-16T03:56:39.808Z,72
2023-05-16T03:57:47.000Z,64
2023-05-16T03:59:12.199Z,80
2023-05-16T04:00:28.394Z,80
2023-05-16T04:01:44.591Z,76
2023-05-16T04:03:00.786Z,84
2023-05-16T04:04:17.239Z,80
2023-05-16T04:05:12.000Z,100
2023-05-16T04:05:33.178Z,100
2023-05-16T04:06:49.374Z,84
2023-05-16T04:08:05.569Z,120
2023-05-16T04:09:21.765Z,92
2023-05-16T04:10:29.000Z,108
2023-05-16T04:13:01.000Z,104
2023-05-16T04:14:17.000Z,108
2023-05-16T04:15:41.760Z,108
2023-05-16T04:16:57.956Z,124
2023-05-16T04:18:05.000Z,128
2023-05-16T04:19:30.596Z,160
2023-05-16T04:20:46.543Z,156
2023-05-16T04:22:02.739Z,148
2023-05-16T04:23:18.934Z,196
2023-05-16T04:24:35.131Z,196
2023-05-16T04:25:51.571Z,140
2023-05-16T04:27:07.522Z,124
2023-05-16T04:28:23.717Z,256
2023-05-16T04:29:38.929Z,256
2023-05-16T04:30:55.124Z,248
2023-05-16T04:32:11.320Z,188
2023-05-16T04:33:27.516Z,272
2023-05-16T04:34:35.000Z,244
2023-05-16T04:35:59.907Z,236
2023-05-16T04:37:07.000Z,216
2023-05-16T04:38:32.299Z,212
2023-05-16T04:39:40.000Z,236
2023-05-16T04:41:04.690Z,188
2023-05-16T04:42:20.886Z,204
2023-05-16T04:43:28.000Z,300
2023-05-16T04:44:45.000Z,288
2023-05-16T04:46:08.489Z,240
2023-05-16T04:47:24.685Z,236
2023-05-16T04:48:40.881Z,340
2023-05-16T04:49:57.077Z,360
2023-05-16T04:51:13.272Z,340
2023-05-16T04:52:20.000Z,340
2023-05-16T04:53:44.685Z,352
2023-05-16T04:55:00.881Z,308
2023-05-16T04:56:08.000Z,380
2023-05-16T04:57:33.273Z,364
2023-05-16T04:58:49.468Z,348
2023-05-16T05:00:05.664Z,336
2023-05-16T05:01:21.860Z,268
2023-05-16T05:02:29.000Z,284
2023-05-16T05:03:54.251Z,200
2023-05-16T05:05:10.447Z,176
2023-05-16T05:06:26.643Z,176
2023-05-16T05:07:34.000Z,200
2023-05-16T05:08:58.050Z,196
2023-05-16T05:10:14.246Z,196
2023-05-16T05:11:30.442Z,184
2023-05-16T05:12:46.638Z,212
2023-05-16T05:14:02.833Z,224
2023-05-16T05:15:19.030Z,184
2023-05-16T05:16:35.225Z,292
2023-05-16T05:17:51.421Z,288
2023-05-16T05:19:07.616Z,284
2023-05-16T05:20:23.813Z,296
2023-05-16T05:21:31.000Z,288
2023-05-16T05:22:56.204Z,376
2023-05-16T05:24:12.399Z,472
2023-05-16T05:25:27.612Z,372
2023-05-16T05:26:43.806Z,420
2023-05-16T05:28:00.002Z,432
2023-05-16T05:29:16.198Z,568
2023-05-16T05:30:32.394Z,724
2023-05-16T05:31:40.000Z,852
2023-05-16T05:33:04.785Z,1000
2023-05-16T05:34:12.000Z,1088
2023-05-16T05:35:37.177Z,1308
2023-05-16T05:36:53.625Z,1736
2023-05-16T05:38:01.000Z,2328
2023-05-16T05:39:17.000Z,2784
2023-05-16T05:40:33.000Z,3548
2023-05-16T05:41:49.000Z,4704
2023-05-16T05:43:13.367Z,5040
2023-05-16T05:44:08.000Z,5312
2023-05-16T05:44:29.563Z,5168
2023-05-16T05:45:45.759Z,5872
2023-05-16T05:47:01.954Z,5808
2023-05-16T05:48:18.151Z,5644
2023-05-16T05:49:26.000Z,5392
2023-05-16T05:51:58.000Z,5336
2023-05-16T05:53:22.933Z,5568
2023-05-16T05:54:30.000Z,4476
2023-05-16T05:55:55.325Z,4468
2023-05-16T05:57:11.520Z,4140
2023-05-16T05:58:27.717Z,3452
2023-05-16T05:59:34.000Z,3360
2023-05-16T06:01:16.848Z,3492
2023-05-16T06:02:15.320Z,4588
2023-05-16T06:03:31.516Z,4740
2023-05-16T06:04:47.711Z,4120
2023-05-16T06:05:55.000Z,4168
2023-05-16T06:07:11.000Z,3908
2023-05-16T06:08:28.000Z,3912
2023-05-16T06:09:44.000Z,4216
2023-05-16T06:11:08.690Z,4956
2023-05-16T06:12:16.000Z,5244
2023-05-16T06:13:41.082Z,6780
2023-05-16T06:14:57.277Z,9504
2023-05-16T06:16:13.473Z,17344
2023-05-16T06:18:15.324Z,8640
2023-05-16T06:18:44.881Z,9224
2023-05-16T06:20:01.076Z,16864
2023-05-16T06:21:17.272Z,10248
2023-05-16T06:22:33.468Z,8620
2023-05-16T06:23:41.000Z,7204
2023-05-16T06:24:57.000Z,27680
2023-05-16T06:26:22.056Z,28128
2023-05-16T06:27:38.251Z,31232
2023-05-16T06:28:54.448Z,10544
2023-05-16T06:30:10.643Z,5760
2023-05-16T06:31:27.090Z,8576
2023-05-16T06:32:43.034Z,4212
2023-05-16T06:33:58.247Z,5240
2023-05-16T06:35:14.443Z,7820
2023-05-16T06:36:30.903Z,8092
2023-05-16T06:37:46.835Z,9996
2023-05-16T06:39:03.031Z,11516
2023-05-16T06:40:19.226Z,9860
2023-05-16T06:41:35.423Z,24768
2023-05-16T06:42:51.618Z,16128
2023-05-16T06:44:08.062Z,10988
2023-05-16T06:45:24.009Z,5776
2023-05-16T06:46:40.206Z,4496
2023-05-16T06:47:56.402Z,6272
2023-05-16T06:49:12.842Z,7320
2023-05-16T06:50:19.000Z,5992
2023-05-16T06:51:35.000Z,5144
2023-05-16T06:52:52.000Z,6408
2023-05-16T06:54:08.000Z,6052
2023-05-16T06:55:32.838Z,4704
2023-05-16T06:56:49.030Z,5596
2023-05-16T06:58:05.230Z,7940
2023-05-16T06:59:21.181Z,7668
2023-05-16T07:00:29.000Z,6236
2023-05-16T07:01:53.572Z,10744
2023-05-16T07:03:10.015Z,7384
2023-05-16T07:04:17.000Z,9948
2023-05-16T07:05:33.000Z,5972
2023-05-16T07:06:57.372Z,5928
2023-05-16T07:08:05.000Z,7336
2023-05-16T07:09:21.000Z,9712
2023-05-16T07:10:45.959Z,8412
2023-05-16T07:11:53.000Z,8308
2023-05-16T07:13:10.000Z,11480
2023-05-16T07:14:26.000Z,8424
2023-05-16T07:15:50.989Z,9580
2023-05-16T07:17:07.187Z,10156
2023-05-16T07:18:23.134Z,10852
2023-05-16T07:19:31.000Z,11048
2023-05-16T07:20:47.000Z,8908
2023-05-16T07:22:11.978Z,9272
2023-05-16T07:23:26.936Z,9588
2023-05-16T07:24:43.132Z,8900
2023-05-16T07:25:59.327Z,9380
2023-05-16T07:27:07.000Z,9336
2023-05-16T07:28:31.971Z,9576
2023-05-16T07:29:47.914Z,9436
2023-05-16T07:30:55.000Z,8012
2023-05-16T07:32:12.000Z,8944
2023-05-16T07:33:28.000Z,6996
2023-05-16T07:34:44.000Z,8160
2023-05-16T07:36:00.000Z,6796
2023-05-16T07:37:25.088Z,9132
2023-05-16T07:38:41.529Z,9196
2023-05-16T07:39:48.000Z,9140
2023-05-16T07:41:12.692Z,8356
2023-05-16T07:42:29.140Z,6660
2023-05-16T07:43:45.084Z,7244
2023-05-16T07:46:09.000Z,6096
2023-05-16T07:47:33.671Z,8396
2023-05-16T07:48:49.866Z,8564
2023-05-16T07:49:57.000Z,9924
2023-05-16T07:51:22.510Z,8648
2023-05-16T07:52:38.707Z,8668
2023-05-16T07:53:54.651Z,8068
2023-05-16T07:55:11.093Z,6844
2023-05-16T07:56:26.305Z,5372
2023-05-16T07:57:42.502Z,4404
2023-05-16T07:58:58.691Z,5076
2023-05-16T08:00:14.646Z,7152
2023-05-16T08:01:30.842Z,10004
2023-05-16T08:02:47.038Z,9468
2023-05-16T08:03:55.000Z,11084
2023-05-16T08:05:11.000Z,10144
2023-05-16T08:06:35.878Z,6812
2023-05-16T08:07:51.822Z,6472
2023-05-16T08:08:59.000Z,9200
2023-05-16T08:10:24.214Z,8836
2023-05-16T08:11:32.000Z,9280
2023-05-16T08:12:47.000Z,10148
2023-05-16T08:14:03.000Z,9928
2023-05-16T08:15:19.000Z,8040
2023-05-16T08:16:35.000Z,5928
2023-05-16T08:18:00.648Z,6792
2023-05-16T08:19:08.000Z,5520
2023-05-16T08:20:24.000Z,5572
2023-05-16T08:21:48.993Z,7700
2023-05-16T08:23:05.457Z,4364
2023-05-16T08:24:21.627Z,5904
2023-05-16T08:25:37.583Z,6792
2023-05-16T08:26:53.778Z,4816
2023-05-16T08:28:01.000Z,4272
2023-05-16T08:29:04.000Z,6676
2023-05-16T08:29:25.186Z,3740
2023-05-16T08:30:41.382Z,4436
2023-05-16T08:31:57.821Z,4920
2023-05-16T08:33:05.000Z,5520
2023-05-16T08:34:29.969Z,5656
2023-05-16T08:37:02.360Z,9992
2023-05-16T08:38:18.556Z,7980
2023-05-16T08:39:26.000Z,5840
2023-05-16T08:40:42.000Z,7272
2023-05-16T08:42:07.142Z,9412
2023-05-16T08:43:15.000Z,9136
2023-05-16T08:44:31.000Z,10008
2023-05-16T08:45:54.747Z,9508
2023-05-16T08:47:02.000Z,9196
2023-05-16T08:48:27.390Z,10644
2023-05-16T08:49:43.334Z,9672
2023-05-16T08:50:59.530Z,11308
2023-05-16T08:52:07.000Z,11532
2023-05-16T08:53:32.177Z,12432
2023-05-16T08:54:39.000Z,11372
2023-05-16T08:55:56.000Z,12284
2023-05-16T08:57:12.000Z,9744
2023-05-16T08:58:36.959Z,9964
2023-05-16T08:59:44.000Z,8856
2023-05-16T09:01:00.000Z,8036
2023-05-16T09:02:16.000Z,7364
2023-05-16T09:03:40.507Z,7140
2023-05-16T09:04:56.942Z,5868
2023-05-16T09:06:12.898Z,7040
2023-05-16T09:07:28.355Z,6776
2023-05-16T09:08:44.311Z,5816
2023-05-16T09:09:52.000Z,7200
2023-05-16T09:11:08.000Z,6984
2023-05-16T09:12:24.000Z,6008
2023-05-16T09:13:49.346Z,5732
2023-05-16T09:15:05.292Z,5044
2023-05-16T09:16:21.488Z,5824
2023-05-16T09:17:29.000Z,6292
2023-05-16T09:18:53.879Z,7808
2023-05-16T09:20:01.000Z,12312
2023-05-16T09:21:26.517Z,10668
2023-05-16T09:22:34.000Z,9016
2023-05-16T09:23:57.680Z,5484
2023-05-16T09:25:14.120Z,4392
2023-05-16T09:26:30.071Z,4504
2023-05-16T09:27:46.266Z,4964
2023-05-16T09:28:54.000Z,6020
2023-05-16T09:30:10.000Z,6912
2023-05-16T09:31:35.113Z,6160
2023-05-16T09:32:51.051Z,3724
2023-05-16T09:34:07.503Z,3412
2023-05-16T09:35:23.694Z,4104
2023-05-16T09:36:39.886Z,4296
2023-05-16T09:37:56.078Z,4896
2023-05-16T09:39:12.283Z,7076
2023-05-16T09:40:19.000Z,7688
2023-05-16T09:41:35.000Z,7588
2023-05-16T09:42:51.000Z,7584
2023-05-16T09:44:07.000Z,4732
2023-05-16T09:45:23.000Z,4704
2023-05-16T09:46:39.000Z,5716
2023-05-16T09:47:56.000Z,5664
2023-05-16T09:49:20.613Z,5980
2023-05-16T09:50:36.808Z,6072
2023-05-16T09:51:53.005Z,8720
2023-05-16T09:53:09.449Z,11108
2023-05-16T09:55:33.000Z,11656
2023-05-16T09:56:56.806Z,10968
2023-05-16T09:58:04.000Z,11360
2023-05-16T09:59:20.000Z,12040
2023-05-16T10:00:45.392Z,9196
2023-05-16T10:02:01.589Z,6520
2023-05-16T10:03:09.000Z,5880
2023-05-16T10:04:25.000Z,8192
2023-05-16T10:05:41.000Z,7512
2023-05-16T10:07:06.371Z,9292
2023-05-16T10:08:14.000Z,7552
2023-05-16T10:09:38.762Z,8460
2023-05-16T10:10:46.000Z,9240
2023-05-16T10:12:02.000Z,6760
2023-05-16T10:13:18.000Z,4584
2023-05-16T10:14:34.000Z,6544
2023-05-16T10:15:50.000Z,9408
2023-05-16T10:17:15.207Z,13020
2023-05-16T10:18:22.000Z,12184
2023-05-16T10:19:47.347Z,8564
2023-05-16T10:20:55.000Z,9980
2023-05-16T10:22:19.739Z,10576
2023-05-16T10:23:36.181Z,6056
2023-05-16T10:24:52.131Z,4740
2023-05-16T10:26:08.326Z,5948
2023-05-16T10:27:24.524Z,8868
2023-05-16T10:28:32.000Z,11100
2023-05-16T10:29:56.180Z,11224
2023-05-16T10:31:03.000Z,10948
2023-05-16T10:32:28.324Z,9412
2023-05-16T10:33:44.763Z,10964
2023-05-16T10:35:00.715Z,11824
2023-05-16T10:36:17.161Z,10600
2023-05-16T10:37:24.000Z,6512
2023-05-16T10:38:49.301Z,5940
2023-05-16T10:39:57.000Z,6388
2023-05-16T10:41:13.000Z,4812
2023-05-16T10:42:38.142Z,4132
2023-05-16T10:43:45.000Z,4932
2023-05-16T10:45:02.000Z,7216
2023-05-16T10:46:26.726Z,11792
2023-05-16T10:47:41.689Z,12080
2023-05-16T10:48:58.132Z,6684
2023-05-16T10:50:05.000Z,7352
2023-05-16T10:51:30.277Z,8212
2023-05-16T10:52:46.474Z,6996
2023-05-16T10:54:02.922Z,5660
2023-05-16T10:55:19.109Z,4360
2023-05-16T10:56:35.060Z,5284
2023-05-16T10:57:51.257Z,8216
2023-05-16T10:59:07.704Z,10332
2023-05-16T11:00:15.000Z,12348
2023-05-16T11:01:40.087Z,12540
2023-05-16T11:02:56.041Z,10980
2023-05-16T11:04:11.513Z,9792
2023-05-16T11:05:27.694Z,7784
2023-05-16T11:06:35.000Z,6456
2023-05-16T11:07:51.000Z,4876
2023-05-16T11:09:16.036Z,5172
2023-05-16T11:10:32.487Z,5692
2023-05-16T11:11:48.428Z,4900
2023-05-16T11:12:56.000Z,5012
2023-05-16T11:14:21.061Z,5040
2023-05-16T11:15:28.000Z,5120
2023-05-16T11:16:44.000Z,6020
2023-05-16T11:18:09.647Z,9996
2023-05-16T11:19:25.841Z,10064
2023-05-16T11:20:41.062Z,9516
2023-05-16T11:21:48.000Z,10288
2023-05-16T11:23:04.000Z,10480
2023-05-16T11:24:21.000Z,8104
2023-05-16T11:25:45.590Z,7868
2023-05-16T11:27:01.784Z,8276
2023-05-16T11:28:09.000Z,12520
2023-05-16T11:29:25.000Z,10484
2023-05-16T11:30:50.615Z,9592
2023-05-16T11:32:06.797Z,12028
2023-05-16T11:33:23.009Z,13828
2023-05-16T11:34:30.000Z,11780
2023-05-16T11:35:55.384Z,8576
2023-05-16T11:37:02.000Z,7024
2023-05-16T11:38:18.000Z,6568
2023-05-16T11:39:42.737Z,6504
2023-05-16T11:40:58.930Z,5416
2023-05-16T11:42:15.124Z,5684
2023-05-16T11:43:31.317Z,7196
2023-05-16T11:44:39.000Z,8812
2023-05-16T11:45:55.000Z,10148
2023-05-16T11:47:11.000Z,12060
2023-05-16T11:48:36.336Z,11492
2023-05-16T11:49:52.532Z,10592
2023-05-16T11:51:00.000Z,8692
2023-05-16T11:52:24.673Z,10200
2023-05-16T11:53:39.883Z,8980
2023-05-16T11:54:47.000Z,8520
2023-05-16T11:56:12.271Z,7512
2023-05-16T11:57:28.703Z,8028
2023-05-16T11:58:36.000Z,9176
2023-05-16T11:59:52.000Z,9092
2023-05-16T12:01:17.045Z,9112
2023-05-16T12:02:24.000Z,10056
2023-05-16T12:03:49.432Z,12360
2023-05-16T12:05:05.874Z,11424
2023-05-16T12:06:13.000Z,12676
2023-05-16T12:07:38.014Z,12096
2023-05-16T12:08:45.000Z,11300
2023-05-16T12:10:01.000Z,10864
2023-05-16T12:11:25.611Z,9900
2023-05-16T12:12:33.000Z,10484
2023-05-16T12:13:49.000Z,13664
2023-05-16T12:15:05.000Z,14576
2023-05-16T12:16:22.000Z,13312
2023-05-16T12:17:46.830Z,11604
2023-05-16T12:19:03.015Z,10572
2023-05-16T12:20:10.000Z,11040
2023-05-16T12:21:35.160Z,11504
2023-05-16T12:22:51.598Z,10876
2023-05-16T12:24:07.785Z,9480
2023-05-16T12:25:15.000Z,8236
2023-05-16T12:26:38.951Z,7040
2023-05-16T12:27:55.409Z,5880
2023-05-16T12:29:13.539Z,6600
2023-05-16T12:30:19.000Z,7776
2023-05-16T12:31:43.726Z,9064
2023-05-16T12:32:51.000Z,10404
2023-05-16T12:34:16.383Z,10156
2023-05-16T12:35:32.567Z,10268
2023-05-16T12:36:40.000Z,8664
2023-05-16T12:38:04.945Z,8384
2023-05-16T12:39:20.889Z,8356
2023-05-16T12:40:28.000Z,8556
2023-05-16T12:41:53.276Z,8308
2023-05-16T12:43:08.735Z,6252
2023-05-16T12:44:24.679Z,5496
2023-05-16T12:45:32.000Z,8780
2023-05-16T12:46:57.311Z,8384
2023-05-16T12:48:13.260Z,5648
2023-05-16T12:49:21.000Z,4132
2023-05-16T12:50:37.000Z,4296
2023-05-16T12:51:53.000Z,5244
2023-05-16T12:53:18.293Z,6504
2023-05-16T12:54:25.000Z,9600
2023-05-16T12:55:42.000Z,11092
2023-05-16T12:57:06.615Z,9588
2023-05-16T12:58:23.059Z,7072
2023-05-16T12:59:38.019Z,4492
2023-05-16T13:00:54.457Z,3724
2023-05-16T13:02:02.000Z,3956
2023-05-16T13:03:18.000Z,5664
2023-05-16T13:04:42.794Z,6252
2023-05-16T13:05:58.988Z,7652
2023-05-16T13:07:15.181Z,5908
2023-05-16T13:08:23.000Z,3992
2023-05-16T13:09:39.000Z,3300
2023-05-16T13:10:55.000Z,3416
2023-05-16T13:12:11.000Z,3460
2023-05-16T13:13:27.000Z,3712
2023-05-16T13:14:52.344Z,4012
2023-05-16T13:15:45.000Z,7632
2023-05-16T13:15:59.000Z,4108
2023-05-16T13:17:15.000Z,4872
2023-05-16T13:18:31.000Z,7852
2023-05-16T13:19:56.134Z,10164
2023-05-16T13:21:04.000Z,8396
2023-05-16T13:23:43.738Z,8824
2023-05-16T13:24:59.932Z,9536
2023-05-16T13:26:07.000Z,7836
2023-05-16T13:27:32.558Z,6688
2023-05-16T13:28:27.000Z,10448
2023-05-16T13:28:40.000Z,6996
2023-05-16T13:30:04.706Z,6356
2023-05-16T13:31:12.000Z,7892
2023-05-16T13:32:37.094Z,8996
2023-05-16T13:33:44.000Z,8520
2023-05-16T13:36:25.675Z,9596
2023-05-16T13:37:41.869Z,8960
2023-05-16T13:38:48.000Z,9796
2023-05-16T13:40:13.516Z,8328
2023-05-16T13:41:29.707Z,8732
2023-05-16T13:42:45.920Z,9252
2023-05-16T13:43:53.000Z,9060
2023-05-16T13:45:18.295Z,9032
2023-05-16T13:46:25.000Z,9004
2023-05-16T13:47:50.680Z,9616
2023-05-16T13:49:06.628Z,9088
2023-05-16T13:50:14.000Z,11312
2023-05-16T13:51:39.015Z,12196
2023-05-16T13:52:46.000Z,10512
2023-05-16T13:54:11.653Z,7932
2023-05-16T13:55:18.000Z,6752
2023-05-16T13:56:34.000Z,6728
2023-05-16T13:57:59.000Z,6816
2023-05-16T13:59:15.194Z,6000
2023-05-16T14:00:31.387Z,8024
2023-05-16T14:01:47.847Z,9420
2023-05-16T14:02:55.000Z,7348
2023-05-16T14:04:19.968Z,5216
2023-05-16T14:05:36.162Z,4772
2023-05-16T14:06:44.000Z,4452
2023-05-16T14:08:08.792Z,4180
2023-05-16T14:09:16.000Z,3660
2023-05-16T14:10:32.000Z,3488
2023-05-16T14:11:34.000Z,4676
2023-05-16T14:11:56.392Z,3468
2023-05-16T14:13:12.340Z,3820
2023-05-16T14:14:28.783Z,3860
2023-05-16T14:15:23.000Z,4128
2023-05-16T14:15:36.000Z,4008
2023-05-16T14:16:52.000Z,4776
2023-05-16T14:19:33.553Z,4352
2023-05-16T14:20:41.000Z,4304
2023-05-16T14:23:22.137Z,4104
2023-05-16T14:24:29.000Z,3676
2023-05-16T14:25:54.529Z,2972
2023-05-16T14:27:10.470Z,3288
2023-05-16T14:28:25.924Z,3288
2023-05-16T14:29:33.000Z,3356
2023-05-16T14:30:58.316Z,3428
2023-05-16T14:32:14.512Z,3732
2023-05-16T14:33:30.455Z,4080
2023-05-16T14:34:38.000Z,4600
2023-05-16T14:36:03.096Z,4656
2023-05-16T14:37:10.000Z,4684
2023-05-16T14:38:12.000Z,5500
2023-05-16T14:38:35.230Z,4868
2023-05-16T14:39:43.000Z,7032
2023-05-16T14:41:07.618Z,8192
2023-05-16T14:42:15.000Z,6320
2023-05-16T14:43:40.005Z,5320
2023-05-16T14:46:03.000Z,5692
2023-05-16T14:47:19.000Z,5948
2023-05-16T14:48:44.044Z,7460
2023-05-16T14:49:51.000Z,9164
2023-05-16T14:51:07.000Z,9772
2023-05-16T14:52:32.377Z,10000
2023-05-16T14:53:48.571Z,9456
2023-05-16T14:55:05.019Z,9188
2023-05-16T14:56:12.000Z,8640
2023-05-16T14:57:37.152Z,7348
2023-05-16T14:58:53.345Z,8288
2023-05-16T15:00:01.000Z,7964
2023-05-16T15:01:25.979Z,7956
2023-05-16T15:02:41.188Z,6444
2023-05-16T15:03:48.000Z,4960
2023-05-16T15:05:05.000Z,3988
2023-05-16T15:06:29.525Z,3900
2023-05-16T15:07:37.000Z,4148
2023-05-16T15:08:53.000Z,4016
2023-05-16T15:10:18.106Z,4592
2023-05-16T15:11:34.299Z,4548
2023-05-16T15:12:50.493Z,5208
2023-05-16T15:14:06.688Z,5064
2023-05-16T15:15:14.000Z,5196
2023-05-16T15:16:39.316Z,5940
2023-05-16T15:17:55.521Z,7244
2023-05-16T15:19:10.479Z,8860
2023-05-16T15:20:26.672Z,8072
2023-05-16T15:21:42.865Z,6468
2023-05-16T15:22:50.000Z,4800
2023-05-16T15:24:15.253Z,5132
2023-05-16T15:25:31.704Z,5768
2023-05-16T15:26:47.880Z,6580
2023-05-16T15:28:03.834Z,6332
2023-05-16T15:29:11.000Z,5600
2023-05-16T15:30:36.470Z,4300
2023-05-16T15:31:44.000Z,3852
2023-05-16T15:33:08.608Z,3620
2023-05-16T15:34:16.000Z,3872
2023-05-16T15:35:40.258Z,4852
2023-05-16T15:36:56.207Z,4604
2023-05-16T15:38:12.646Z,3384
2023-05-16T15:39:20.000Z,3000
2023-05-16T15:40:45.029Z,3844
2023-05-16T15:41:52.000Z,4320
2023-05-16T15:43:08.000Z,4124
2023-05-16T15:44:33.368Z,4184
2023-05-16T15:45:49.802Z,5184
2023-05-16T15:47:06.002Z,5968
2023-05-16T15:48:13.000Z,6100
2023-05-16T15:49:29.000Z,5740
2023-05-16T15:50:54.338Z,5356
2023-05-16T15:52:09.548Z,4092
2023-05-16T15:53:25.993Z,3980
2023-05-16T15:54:42.189Z,4292
2023-05-16T15:55:49.000Z,4596
2023-05-16T15:57:14.576Z,4808
2023-05-16T15:58:22.000Z,5604
2023-05-16T15:59:46.709Z,5308
2023-05-16T16:01:02.903Z,5736
2023-05-16T16:02:10.000Z,5472
2023-05-16T16:03:35.290Z,5164
2023-05-16T16:04:51.483Z,5584
2023-05-16T16:05:59.000Z,5472
2023-05-16T16:07:24.116Z,4632
2023-05-16T16:08:30.000Z,4748
2023-05-16T16:09:46.000Z,4440
2023-05-16T16:11:11.470Z,5404
2023-05-16T16:12:27.663Z,5360
2023-05-16T16:13:43.857Z,4904
2023-05-16T16:15:00.051Z,5016
2023-05-16T16:16:07.000Z,5572
2023-05-16T16:17:32.438Z,5084
2023-05-16T16:18:48.878Z,4984
2023-05-16T16:20:04.826Z,5340
2023-05-16T16:21:21.020Z,5396
2023-05-16T16:22:37.213Z,5580
2023-05-16T16:23:45.000Z,4844
2023-05-16T16:25:00.000Z,4616
2023-05-16T16:26:25.057Z,4224
2023-05-16T16:27:32.000Z,3704
2023-05-16T16:28:48.000Z,3820
2023-05-16T16:30:13.391Z,3896
2023-05-16T16:31:21.000Z,3704
2023-05-16T16:32:46.026Z,4884
2023-05-16T16:33:53.000Z,5452
2023-05-16T16:35:09.000Z,5020
2023-05-16T16:36:34.360Z,4520
2023-05-16T16:37:50.807Z,3996
2023-05-16T16:38:58.000Z,4384
2023-05-16T16:40:22.940Z,5248
2023-05-16T16:41:29.000Z,5080
2023-05-16T16:42:54.346Z,4888
2023-05-16T16:44:10.540Z,5336
2023-05-16T16:45:26.733Z,4732
2023-05-16T16:46:42.927Z,4728
2023-05-16T16:47:50.000Z,4832
2023-05-16T16:49:06.000Z,4972
2023-05-16T16:50:23.000Z,5060
2023-05-16T16:51:47.701Z,5044
2023-05-16T16:53:03.896Z,5404
2023-05-16T16:54:20.090Z,5020
2023-05-16T16:55:36.283Z,4668
2023-05-16T16:56:52.477Z,4484
2023-05-16T16:58:07.687Z,4076
2023-05-16T16:59:15.000Z,4244
2023-05-16T17:00:40.074Z,3340
2023-05-16T17:01:56.519Z,2596
2023-05-16T17:03:04.000Z,3464
2023-05-16T17:04:20.000Z,3548
2023-05-16T17:05:36.000Z,3680
2023-05-16T17:06:52.000Z,4020
2023-05-16T17:08:08.000Z,4032
2023-05-16T17:09:25.000Z,3920
2023-05-16T17:10:49.623Z,3876
2023-05-16T17:12:05.816Z,3596
2023-05-16T17:13:22.263Z,3588
2023-05-16T17:14:37.220Z,3824
2023-05-16T17:15:53.673Z,4080
2023-05-16T17:17:09.855Z,4496
2023-05-16T17:18:25.802Z,4696
2023-05-16T17:19:33.000Z,4536